sensor_id;sensor_type;location;lat;lon;timestamp;P1;durP1;ratioP1;P2;durP2;ratioP2
57339;SDS011;43174;50.930;18.170;2022-11-15T00:01:17;22.90;;;19.50;;
57339;SDS011;43174;50.930;18.170;2022-11-15T00:10:59;40.80;;;25.40;;
57339;SDS011;43174;50.930;18.170;2022-11-15T00:20:41;23.10;;;20.60;;
57339;SDS011;43174;50.930;18.170;2022-11-15T00:30:24;29.40;;;21.50;;
57339;SDS011;43174;50.930;18.170;2022-11-15T00:40:05;64.30;;;27.60;;
57339;SDS011;43174;50.930;18.170;2022-11-15T00:49:47;62.50;;;25.50;;
57339;SDS011;43174;50.930;18.170;2022-11-15T00:59:29;72.40;;;27.90;;
57339;SDS011;43174;50.930;18.170;2022-11-15T01:09:11;43.10;;;23.40;;
57339;SDS011;43174;50.930;18.170;2022-11-15T01:18:52;34.60;;;25.60;;
57339;SDS011;43174;50.930;18.170;2022-11-15T01:28:34;16.70;;;14.90;;
57339;SDS011;43174;50.930;18.170;2022-11-15T01:38:15;20.20;;;18.30;;
57339;SDS011;43174;50.930;18.170;2022-11-15T01:47:57;31.80;;;25.50;;
57339;SDS011;43174;50.930;18.170;2022-11-15T01:57:39;31.80;;;27.50;;
57339;SDS011;43174;50.930;18.170;2022-11-15T02:07:22;39.60;;;27.60;;
57339;SDS011;43174;50.930;18.170;2022-11-15T02:37:05;16.20;;;15.30;;
57339;SDS011;43174;50.930;18.170;2022-11-15T02:46:49;29.70;;;22.60;;
57339;SDS011;43174;50.930;18.170;2022-11-15T02:56:52;18.50;;;16.00;;
57339;SDS011;43174;50.930;18.170;2022-11-15T03:21:06;42.60;;;30.20;;
57339;SDS011;43174;50.930;18.170;2022-11-15T03:30:48;17.90;;;16.60;;
57339;SDS011;43174;50.930;18.170;2022-11-15T03:40:39;28.20;;;25.10;;
57339;SDS011;43174;50.930;18.170;2022-11-15T03:50:21;26.40;;;22.90;;
57339;SDS011;43174;50.930;18.170;2022-11-15T03:52:48;47.10;;;28.10;;
57339;SDS011;43174;50.930;18.170;2022-11-15T04:02:30;33.00;;;24.90;;
57339;SDS011;43174;50.930;18.170;2022-11-15T04:12:31;31.00;;;22.10;;
57339;SDS011;43174;50.930;18.170;2022-11-15T04:22:44;39.70;;;23.70;;
57339;SDS011;43174;50.930;18.170;2022-11-15T04:32:44;28.70;;;19.80;;
57339;SDS011;43174;50.930;18.170;2022-11-15T04:42:26;37.90;;;26.90;;
57339;SDS011;43174;50.930;18.170;2022-11-15T04:52:09;44.00;;;26.70;;
57339;SDS011;43174;50.930;18.170;2022-11-15T05:01:51;35.80;;;27.00;;
57339;SDS011;43174;50.930;18.170;2022-11-15T05:11:35;46.70;;;31.40;;
57339;SDS011;43174;50.930;18.170;2022-11-15T05:21:17;50.20;;;28.90;;
57339;SDS011;43174;50.930;18.170;2022-11-15T05:31:02;45.50;;;25.00;;
57339;SDS011;43174;50.930;18.170;2022-11-15T05:40:45;26.40;;;22.70;;
57339;SDS011;43174;50.930;18.170;2022-11-15T05:50:27;17.40;;;16.10;;
57339;SDS011;43174;50.930;18.170;2022-11-15T06:00:09;34.90;;;24.90;;
57339;SDS011;43174;50.930;18.170;2022-11-15T06:09:51;48.80;;;23.50;;
57339;SDS011;43174;50.930;18.170;2022-11-15T06:19:32;32.80;;;23.00;;
57339;SDS011;43174;50.930;18.170;2022-11-15T06:29:14;64.90;;;15.80;;
57339;SDS011;43174;50.930;18.170;2022-11-15T06:38:56;19.30;;;17.50;;
57339;SDS011;43174;50.930;18.170;2022-11-15T07:03:13;29.00;;;19.30;;
57339;SDS011;43174;50.930;18.170;2022-11-15T07:12:54;30.90;;;28.00;;
57339;SDS011;43174;50.930;18.170;2022-11-15T07:22:36;15.20;;;13.60;;
57339;SDS011;43174;50.930;18.170;2022-11-15T07:32:18;31.10;;;28.20;;
57339;SDS011;43174;50.930;18.170;2022-11-15T07:42:01;26.10;;;23.90;;
57339;SDS011;43174;50.930;18.170;2022-11-15T07:52:01;24.00;;;22.40;;
57339;SDS011;43174;50.930;18.170;2022-11-15T08:01:42;21.10;;;19.30;;
57339;SDS011;43174;50.930;18.170;2022-11-15T08:11:24;20.40;;;18.30;;
57339;SDS011;43174;50.930;18.170;2022-11-15T08:28:23;33.30;;;21.30;;
57339;SDS011;43174;50.930;18.170;2022-11-15T08:45:21;23.20;;;21.10;;
57339;SDS011;43174;50.930;18.170;2022-11-15T08:55:04;19.00;;;17.00;;
57339;SDS011;43174;50.930;18.170;2022-11-15T09:04:48;21.30;;;19.30;;
57339;SDS011;43174;50.930;18.170;2022-11-15T09:14:30;19.50;;;17.90;;
57339;SDS011;43174;50.930;18.170;2022-11-15T09:24:12;19.10;;;17.60;;
57339;SDS011;43174;50.930;18.170;2022-11-15T09:33:54;18.80;;;17.40;;
57339;SDS011;43174;50.930;18.170;2022-11-15T09:50:52;18.30;;;17.10;;
57339;SDS011;43174;50.930;18.170;2022-11-15T10:00:41;15.20;;;14.40;;
57339;SDS011;43174;50.930;18.170;2022-11-15T10:10:29;17.00;;;15.70;;
57339;SDS011;43174;50.930;18.170;2022-11-15T10:27:32;15.70;;;14.80;;
57339;SDS011;43174;50.930;18.170;2022-11-15T10:37:26;12.60;;;11.90;;
57339;SDS011;43174;50.930;18.170;2022-11-15T10:57:06;12.90;;;12.20;;
57339;SDS011;43174;50.930;18.170;2022-11-15T11:06:53;10.40;;;9.90;;
57339;SDS011;43174;50.930;18.170;2022-11-15T11:16:39;9.60;;;9.20;;
57339;SDS011;43174;50.930;18.170;2022-11-15T11:26:42;13.40;;;12.20;;
57339;SDS011;43174;50.930;18.170;2022-11-15T11:36:42;6.10;;;5.60;;
57339;SDS011;43174;50.930;18.170;2022-11-15T12:13:34;10.30;;;9.80;;
57339;SDS011;43174;50.930;18.170;2022-11-15T12:23:23;12.20;;;11.60;;
57339;SDS011;43174;50.930;18.170;2022-11-15T12:33:16;12.80;;;11.90;;
57339;SDS011;43174;50.930;18.170;2022-11-15T13:03:12;15.30;;;14.30;;
57339;SDS011;43174;50.930;18.170;2022-11-15T13:13:00;16.70;;;15.90;;
57339;SDS011;43174;50.930;18.170;2022-11-15T13:30:13;16.80;;;15.50;;
57339;SDS011;43174;50.930;18.170;2022-11-15T13:40:09;15.20;;;14.10;;
57339;SDS011;43174;50.930;18.170;2022-11-15T13:49:52;20.40;;;18.80;;
57339;SDS011;43174;50.930;18.170;2022-11-15T14:07:00;20.20;;;18.50;;
57339;SDS011;43174;50.930;18.170;2022-11-15T14:16:44;34.30;;;28.40;;
57339;SDS011;43174;50.930;18.170;2022-11-15T14:26:31;145.20;;;62.80;;
57339;SDS011;43174;50.930;18.170;2022-11-15T14:50:47;82.30;;;49.90;;
57339;SDS011;43174;50.930;18.170;2022-11-15T15:00:30;63.30;;;40.30;;
57339;SDS011;43174;50.930;18.170;2022-11-15T15:10:11;30.00;;;16.80;;
57339;SDS011;43174;50.930;18.170;2022-11-15T15:19:55;45.90;;;28.70;;
57339;SDS011;43174;50.930;18.170;2022-11-15T15:29:38;33.40;;;27.70;;
57339;SDS011;43174;50.930;18.170;2022-11-15T15:39:20;30.50;;;23.80;;
57339;SDS011;43174;50.930;18.170;2022-11-15T15:49:01;59.20;;;30.30;;
57339;SDS011;43174;50.930;18.170;2022-11-15T15:56:22;43.90;;;36.00;;
57339;SDS011;43174;50.930;18.170;2022-11-15T16:06:23;90.50;;;45.20;;
57339;SDS011;43174;50.930;18.170;2022-11-15T16:16:09;371.50;;;187.80;;
57339;SDS011;43174;50.930;18.170;2022-11-15T16:25:54;129.30;;;72.20;;
57339;SDS011;43174;50.930;18.170;2022-11-15T16:35:37;66.90;;;35.10;;
57339;SDS011;43174;50.930;18.170;2022-11-15T16:45:21;52.70;;;34.10;;
57339;SDS011;43174;50.930;18.170;2022-11-15T16:55:03;127.40;;;38.40;;
57339;SDS011;43174;50.930;18.170;2022-11-15T17:04:45;140.50;;;52.50;;
57339;SDS011;43174;50.930;18.170;2022-11-15T17:14:27;112.50;;;56.70;;
57339;SDS011;43174;50.930;18.170;2022-11-15T17:24:11;137.60;;;68.30;;
57339;SDS011;43174;50.930;18.170;2022-11-15T17:33:59;100.60;;;57.60;;
57339;SDS011;43174;50.930;18.170;2022-11-15T17:43:42;185.10;;;83.10;;
57339;SDS011;43174;50.930;18.170;2022-11-15T17:53:25;160.20;;;84.10;;
57339;SDS011;43174;50.930;18.170;2022-11-15T18:03:10;370.30;;;200.90;;
57339;SDS011;43174;50.930;18.170;2022-11-15T18:12:52;210.70;;;115.50;;
57339;SDS011;43174;50.930;18.170;2022-11-15T18:22:35;250.20;;;127.80;;
57339;SDS011;43174;50.930;18.170;2022-11-15T18:32:17;215.30;;;103.80;;
57339;SDS011;43174;50.930;18.170;2022-11-15T18:41:59;164.80;;;66.60;;
57339;SDS011;43174;50.930;18.170;2022-11-15T18:51:44;95.00;;;56.30;;
57339;SDS011;43174;50.930;18.170;2022-11-15T19:01:27;127.60;;;60.00;;
57339;SDS011;43174;50.930;18.170;2022-11-15T19:11:12;140.00;;;71.00;;
57339;SDS011;43174;50.930;18.170;2022-11-15T19:21:00;166.60;;;74.10;;
57339;SDS011;43174;50.930;18.170;2022-11-15T19:30:44;187.90;;;80.10;;
57339;SDS011;43174;50.930;18.170;2022-11-15T19:33:18;231.50;;;89.30;;
57339;SDS011;43174;50.930;18.170;2022-11-15T19:43:00;211.40;;;115.20;;
57339;SDS011;43174;50.930;18.170;2022-11-15T19:52:42;220.70;;;77.70;;
57339;SDS011;43174;50.930;18.170;2022-11-15T20:02:24;147.10;;;52.90;;
57339;SDS011;43174;50.930;18.170;2022-11-15T20:12:05;171.50;;;80.40;;
57339;SDS011;43174;50.930;18.170;2022-11-15T20:21:47;114.50;;;50.20;;
57339;SDS011;43174;50.930;18.170;2022-11-15T20:31:29;91.70;;;38.50;;
57339;SDS011;43174;50.930;18.170;2022-11-15T20:41:11;79.90;;;49.00;;
57339;SDS011;43174;50.930;18.170;2022-11-15T20:51:02;93.20;;;40.90;;
57339;SDS011;43174;50.930;18.170;2022-11-15T21:00:44;123.20;;;42.00;;
57339;SDS011;43174;50.930;18.170;2022-11-15T21:10:26;127.80;;;64.60;;
57339;SDS011;43174;50.930;18.170;2022-11-15T21:20:26;120.10;;;59.30;;
57339;SDS011;43174;50.930;18.170;2022-11-15T21:30:08;196.40;;;70.10;;
57339;SDS011;43174;50.930;18.170;2022-11-15T21:39:50;98.70;;;51.60;;
57339;SDS011;43174;50.930;18.170;2022-11-15T21:49:31;125.90;;;56.30;;
57339;SDS011;43174;50.930;18.170;2022-11-15T21:59:13;149.50;;;62.00;;
57339;SDS011;43174;50.930;18.170;2022-11-15T22:09:13;183.50;;;105.40;;
57339;SDS011;43174;50.930;18.170;2022-11-15T22:18:55;149.20;;;87.40;;
57339;SDS011;43174;50.930;18.170;2022-11-15T22:28:37;52.60;;;37.10;;
57339;SDS011;43174;50.930;18.170;2022-11-15T22:38:20;75.90;;;38.60;;
57339;SDS011;43174;50.930;18.170;2022-11-15T22:48:01;49.50;;;33.00;;
57339;SDS011;43174;50.930;18.170;2022-11-15T22:57:43;76.20;;;51.20;;
57339;SDS011;43174;50.930;18.170;2022-11-15T23:07:25;34.70;;;22.60;;
57339;SDS011;43174;50.930;18.170;2022-11-15T23:17:29;88.60;;;45.40;;
57339;SDS011;43174;50.930;18.170;2022-11-15T23:27:32;128.70;;;79.40;;
57339;SDS011;43174;50.930;18.170;2022-11-15T23:37:52;153.50;;;77.50;;
57339;SDS011;43174;50.930;18.170;2022-11-15T23:47:33;183.80;;;85.00;;
57339;SDS011;43174;50.930;18.170;2022-11-15T23:57:19;139.80;;;76.10;;
